sensor_id;sensor_type;location;lat;lon;timestamp;temperature;humidity
8231;DHT22;4156;50.908;6.974;2023-04-03T00:01:13;7.50;99.90
8231;DHT22;4156;50.908;6.974;2023-04-03T00:03:39;7.50;99.90
8231;DHT22;4156;50.908;6.974;2023-04-03T00:06:05;7.50;99.90
8231;DHT22;4156;50.908;6.974;2023-04-03T00:08:34;7.50;99.90
8231;DHT22;4156;50.908;6.974;2023-04-03T00:11:00;7.50;99.90
8231;DHT22;4156;50.908;6.974;2023-04-03T00:13:26;7.50;99.90
8231;DHT22;4156;50.908;6.974;2023-04-03T00:15:51;7.40;99.90
8231;DHT22;4156;50.908;6.974;2023-04-03T00:18:17;7.40;99.90
8231;DHT22;4156;50.908;6.974;2023-04-03T00:20:43;7.40;99.90
8231;DHT22;4156;50.908;6.974;2023-04-03T00:23:09;7.40;99.90
8231;DHT22;4156;50.908;6.974;2023-04-03T00:25:35;7.40;99.90
8231;DHT22;4156;50.908;6.974;2023-04-03T00:28:01;7.40;99.90
8231;DHT22;4156;50.908;6.974;2023-04-03T00:30:27;7.40;99.90
8231;DHT22;4156;50.908;6.974;2023-04-03T00:32:52;7.30;99.90
8231;DHT22;4156;50.908;6.974;2023-04-03T00:35:19;7.30;99.90
8231;DHT22;4156;50.908;6.974;2023-04-03T00:37:45;7.30;99.90
8231;DHT22;4156;50.908;6.974;2023-04-03T00:40:13;7.20;99.90
8231;DHT22;4156;50.908;6.974;2023-04-03T00:42:40;7.20;99.90
8231;DHT22;4156;50.908;6.974;2023-04-03T00:47:31;7.20;99.90
8231;DHT22;4156;50.908;6.974;2023-04-03T00:49:58;7.10;99.90
8231;DHT22;4156;50.908;6.974;2023-04-03T00:52:28;7.10;99.90
8231;DHT22;4156;50.908;6.974;2023-04-03T00:54:57;7.10;99.90
8231;DHT22;4156;50.908;6.974;2023-04-03T00:57:26;7.00;99.90
8231;DHT22;4156;50.908;6.974;2023-04-03T00:59:57;7.00;99.90
8231;DHT22;4156;50.908;6.974;2023-04-03T01:02:24;7.00;99.90
8231;DHT22;4156;50.908;6.974;2023-04-03T01:04:51;6.90;99.90
8231;DHT22;4156;50.908;6.974;2023-04-03T01:07:19;6.90;99.90
8231;DHT22;4156;50.908;6.974;2023-04-03T01:09:48;6.90;99.90
8231;DHT22;4156;50.908;6.974;2023-04-03T01:12:22;6.90;99.90
8231;DHT22;4156;50.908;6.974;2023-04-03T01:15:00;6.90;99.90
8231;DHT22;4156;50.908;6.974;2023-04-03T01:20:31;6.80;99.90
8231;DHT22;4156;50.908;6.974;2023-04-03T01:28:13;6.80;99.90
8231;DHT22;4156;50.908;6.974;2023-04-03T01:30:45;6.80;99.90
8231;DHT22;4156;50.908;6.974;2023-04-03T01:33:12;6.80;99.90
8231;DHT22;4156;50.908;6.974;2023-04-03T01:35:38;6.70;99.90
8231;DHT22;4156;50.908;6.974;2023-04-03T01:38:03;6.70;99.90
8231;DHT22;4156;50.908;6.974;2023-04-03T01:40:29;6.70;99.90
8231;DHT22;4156;50.908;6.974;2023-04-03T01:42:55;6.70;99.90
8231;DHT22;4156;50.908;6.974;2023-04-03T01:45:20;6.70;99.90
8231;DHT22;4156;50.908;6.974;2023-04-03T01:47:46;6.70;99.90
8231;DHT22;4156;50.908;6.974;2023-04-03T01:50:11;6.70;99.90
8231;DHT22;4156;50.908;6.974;2023-04-03T01:52:37;6.70;99.90
8231;DHT22;4156;50.908;6.974;2023-04-03T01:55:03;6.70;99.90
8231;DHT22;4156;50.908;6.974;2023-04-03T01:57:28;6.70;99.90
8231;DHT22;4156;50.908;6.974;2023-04-03T01:59:54;6.70;99.90
8231;DHT22;4156;50.908;6.974;2023-04-03T02:02:19;6.70;99.90
8231;DHT22;4156;50.908;6.974;2023-04-03T02:04:46;6.70;99.90
8231;DHT22;4156;50.908;6.974;2023-04-03T02:07:11;6.60;99.90
8231;DHT22;4156;50.908;6.974;2023-04-03T02:09:37;6.60;99.90
8231;DHT22;4156;50.908;6.974;2023-04-03T02:12:02;6.60;99.90
8231;DHT22;4156;50.908;6.974;2023-04-03T02:14:28;6.50;99.90
8231;DHT22;4156;50.908;6.974;2023-04-03T02:16:54;6.50;99.90
8231;DHT22;4156;50.908;6.974;2023-04-03T02:19:19;6.50;99.90
8231;DHT22;4156;50.908;6.974;2023-04-03T02:21:45;6.50;99.90
8231;DHT22;4156;50.908;6.974;2023-04-03T02:24:10;6.50;99.90
8231;DHT22;4156;50.908;6.974;2023-04-03T02:26:36;6.50;99.90
8231;DHT22;4156;50.908;6.974;2023-04-03T02:29:02;6.50;99.90
8231;DHT22;4156;50.908;6.974;2023-04-03T02:31:28;6.50;99.90
8231;DHT22;4156;50.908;6.974;2023-04-03T02:33:53;6.40;99.90
8231;DHT22;4156;50.908;6.974;2023-04-03T02:36:19;6.40;99.90
8231;DHT22;4156;50.908;6.974;2023-04-03T02:38:44;6.50;99.90
8231;DHT22;4156;50.908;6.974;2023-04-03T02:41:11;6.40;99.90
8231;DHT22;4156;50.908;6.974;2023-04-03T02:43:37;6.40;99.90
8231;DHT22;4156;50.908;6.974;2023-04-03T02:46:04;6.40;99.90
8231;DHT22;4156;50.908;6.974;2023-04-03T02:48:29;6.40;99.90
8231;DHT22;4156;50.908;6.974;2023-04-03T02:50:55;6.40;99.90
8231;DHT22;4156;50.908;6.974;2023-04-03T02:53:21;6.40;99.90
8231;DHT22;4156;50.908;6.974;2023-04-03T02:55:47;6.30;99.90
8231;DHT22;4156;50.908;6.974;2023-04-03T02:58:12;6.30;99.90
8231;DHT22;4156;50.908;6.974;2023-04-03T03:00:38;6.30;99.90
8231;DHT22;4156;50.908;6.974;2023-04-03T03:03:04;6.30;99.90
8231;DHT22;4156;50.908;6.974;2023-04-03T03:05:30;6.30;99.90
8231;DHT22;4156;50.908;6.974;2023-04-03T03:07:56;6.20;99.90
8231;DHT22;4156;50.908;6.974;2023-04-03T03:10:22;6.20;99.90
8231;DHT22;4156;50.908;6.974;2023-04-03T03:12:48;6.20;99.90
8231;DHT22;4156;50.908;6.974;2023-04-03T03:15:13;6.20;99.90
8231;DHT22;4156;50.908;6.974;2023-04-03T03:17:40;6.10;99.90
8231;DHT22;4156;50.908;6.974;2023-04-03T03:20:06;6.10;99.90
8231;DHT22;4156;50.908;6.974;2023-04-03T03:22:33;6.10;99.90
8231;DHT22;4156;50.908;6.974;2023-04-03T03:24:58;6.10;99.90
8231;DHT22;4156;50.908;6.974;2023-04-03T03:27:24;6.10;99.90
8231;DHT22;4156;50.908;6.974;2023-04-03T03:29:50;6.00;99.90
8231;DHT22;4156;50.908;6.974;2023-04-03T03:32:15;6.00;99.90
8231;DHT22;4156;50.908;6.974;2023-04-03T03:34:41;6.00;99.90
8231;DHT22;4156;50.908;6.974;2023-04-03T03:37:06;6.00;99.90
8231;DHT22;4156;50.908;6.974;2023-04-03T03:39:32;5.90;99.90
8231;DHT22;4156;50.908;6.974;2023-04-03T03:41:58;5.90;99.90
8231;DHT22;4156;50.908;6.974;2023-04-03T03:44:23;5.90;99.90
8231;DHT22;4156;50.908;6.974;2023-04-03T03:46:49;5.80;99.90
8231;DHT22;4156;50.908;6.974;2023-04-03T03:49:14;5.70;99.90
8231;DHT22;4156;50.908;6.974;2023-04-03T03:51:40;5.70;99.90
8231;DHT22;4156;50.908;6.974;2023-04-03T03:54:06;5.70;99.90
8231;DHT22;4156;50.908;6.974;2023-04-03T03:56:33;5.70;99.90
8231;DHT22;4156;50.908;6.974;2023-04-03T03:58:58;5.60;99.90
8231;DHT22;4156;50.908;6.974;2023-04-03T04:01:24;5.60;99.90
8231;DHT22;4156;50.908;6.974;2023-04-03T04:03:50;5.60;99.90
8231;DHT22;4156;50.908;6.974;2023-04-03T04:06:16;5.60;99.90
8231;DHT22;4156;50.908;6.974;2023-04-03T04:08:42;5.60;99.90
8231;DHT22;4156;50.908;6.974;2023-04-03T04:11:08;5.60;99.90
8231;DHT22;4156;50.908;6.974;2023-04-03T04:13:34;5.60;99.90
8231;DHT22;4156;50.908;6.974;2023-04-03T04:16:00;5.60;99.90
8231;DHT22;4156;50.908;6.974;2023-04-03T04:18:26;5.60;99.90
8231;DHT22;4156;50.908;6.974;2023-04-03T04:20:51;5.60;99.90
8231;DHT22;4156;50.908;6.974;2023-04-03T04:23:17;5.50;99.90
8231;DHT22;4156;50.908;6.974;2023-04-03T04:25:47;5.50;99.90
8231;DHT22;4156;50.908;6.974;2023-04-03T04:28:13;5.50;99.90
8231;DHT22;4156;50.908;6.974;2023-04-03T04:30:39;5.50;99.90
8231;DHT22;4156;50.908;6.974;2023-04-03T04:33:05;5.50;99.90
8231;DHT22;4156;50.908;6.974;2023-04-03T04:35:31;5.50;99.90
8231;DHT22;4156;50.908;6.974;2023-04-03T04:37:56;5.40;99.90
8231;DHT22;4156;50.908;6.974;2023-04-03T04:40:22;5.40;99.90
8231;DHT22;4156;50.908;6.974;2023-04-03T04:42:47;5.40;99.90
8231;DHT22;4156;50.908;6.974;2023-04-03T04:45:13;5.40;99.90
8231;DHT22;4156;50.908;6.974;2023-04-03T04:47:38;5.40;99.90
8231;DHT22;4156;50.908;6.974;2023-04-03T04:50:04;5.40;99.90
8231;DHT22;4156;50.908;6.974;2023-04-03T04:52:30;5.40;99.90
8231;DHT22;4156;50.908;6.974;2023-04-03T04:54:56;5.40;99.90
8231;DHT22;4156;50.908;6.974;2023-04-03T04:57:21;5.30;99.90
8231;DHT22;4156;50.908;6.974;2023-04-03T04:59:47;5.40;99.90
8231;DHT22;4156;50.908;6.974;2023-04-03T05:02:12;5.40;99.90
8231;DHT22;4156;50.908;6.974;2023-04-03T05:04:38;5.40;99.90
8231;DHT22;4156;50.908;6.974;2023-04-03T05:07:03;5.30;99.90
8231;DHT22;4156;50.908;6.974;2023-04-03T05:09:29;5.30;99.90
8231;DHT22;4156;50.908;6.974;2023-04-03T05:11:54;5.30;99.90
8231;DHT22;4156;50.908;6.974;2023-04-03T05:14:21;5.30;99.90
8231;DHT22;4156;50.908;6.974;2023-04-03T05:16:47;5.30;99.90
8231;DHT22;4156;50.908;6.974;2023-04-03T05:19:13;5.30;99.90
8231;DHT22;4156;50.908;6.974;2023-04-03T05:21:38;5.30;99.90
8231;DHT22;4156;50.908;6.974;2023-04-03T05:24:04;5.30;99.90
8231;DHT22;4156;50.908;6.974;2023-04-03T05:26:31;5.30;99.90
8231;DHT22;4156;50.908;6.974;2023-04-03T05:28:56;5.30;99.90
8231;DHT22;4156;50.908;6.974;2023-04-03T05:31:22;5.30;99.90
8231;DHT22;4156;50.908;6.974;2023-04-03T05:33:49;5.20;99.90
8231;DHT22;4156;50.908;6.974;2023-04-03T05:36:15;5.20;99.90
8231;DHT22;4156;50.908;6.974;2023-04-03T05:38:41;5.20;99.90
8231;DHT22;4156;50.908;6.974;2023-04-03T05:41:06;5.30;99.90
8231;DHT22;4156;50.908;6.974;2023-04-03T05:43:32;5.30;99.90
8231;DHT22;4156;50.908;6.974;2023-04-03T05:45:59;5.30;99.90
8231;DHT22;4156;50.908;6.974;2023-04-03T05:48:24;5.40;99.90
8231;DHT22;4156;50.908;6.974;2023-04-03T05:50:50;5.40;99.90
8231;DHT22;4156;50.908;6.974;2023-04-03T05:53:21;5.40;99.90
8231;DHT22;4156;50.908;6.974;2023-04-03T05:55:46;5.40;99.90
8231;DHT22;4156;50.908;6.974;2023-04-03T05:58:12;5.50;99.90
8231;DHT22;4156;50.908;6.974;2023-04-03T06:00:38;5.60;99.90
8231;DHT22;4156;50.908;6.974;2023-04-03T06:03:04;5.60;99.90
8231;DHT22;4156;50.908;6.974;2023-04-03T06:05:30;5.70;99.90
8231;DHT22;4156;50.908;6.974;2023-04-03T06:07:55;5.70;99.90
8231;DHT22;4156;50.908;6.974;2023-04-03T06:10:22;5.80;99.90
8231;DHT22;4156;50.908;6.974;2023-04-03T06:12:48;5.90;99.90
8231;DHT22;4156;50.908;6.974;2023-04-03T06:15:13;5.90;99.90
8231;DHT22;4156;50.908;6.974;2023-04-03T06:17:39;5.90;99.90
8231;DHT22;4156;50.908;6.974;2023-04-03T06:20:04;6.00;99.90
8231;DHT22;4156;50.908;6.974;2023-04-03T06:22:30;6.10;99.90
8231;DHT22;4156;50.908;6.974;2023-04-03T06:24:56;6.10;99.90
8231;DHT22;4156;50.908;6.974;2023-04-03T06:27:22;6.10;99.90
8231;DHT22;4156;50.908;6.974;2023-04-03T06:29:48;6.20;99.90
8231;DHT22;4156;50.908;6.974;2023-04-03T06:32:14;6.20;99.90
8231;DHT22;4156;50.908;6.974;2023-04-03T06:34:40;6.20;99.90
8231;DHT22;4156;50.908;6.974;2023-04-03T06:37:10;6.30;99.90
8231;DHT22;4156;50.908;6.974;2023-04-03T06:39:36;6.30;99.90
8231;DHT22;4156;50.908;6.974;2023-04-03T06:42:01;6.40;99.90
8231;DHT22;4156;50.908;6.974;2023-04-03T06:44:27;6.40;99.90
8231;DHT22;4156;50.908;6.974;2023-04-03T06:46:52;6.50;99.90
8231;DHT22;4156;50.908;6.974;2023-04-03T06:49:19;6.60;99.90
8231;DHT22;4156;50.908;6.974;2023-04-03T06:51:45;6.50;99.90
8231;DHT22;4156;50.908;6.974;2023-04-03T06:54:12;6.60;99.90
8231;DHT22;4156;50.908;6.974;2023-04-03T06:56:37;6.60;99.90
8231;DHT22;4156;50.908;6.974;2023-04-03T06:59:03;6.70;99.90
8231;DHT22;4156;50.908;6.974;2023-04-03T07:01:30;6.80;99.90
8231;DHT22;4156;50.908;6.974;2023-04-03T07:03:56;6.80;99.90
8231;DHT22;4156;50.908;6.974;2023-04-03T07:06:22;6.80;99.90
8231;DHT22;4156;50.908;6.974;2023-04-03T07:08:48;6.90;99.90
8231;DHT22;4156;50.908;6.974;2023-04-03T07:11:14;7.00;99.90
8231;DHT22;4156;50.908;6.974;2023-04-03T07:13:40;7.00;99.90
8231;DHT22;4156;50.908;6.974;2023-04-03T07:16:07;7.00;99.90
8231;DHT22;4156;50.908;6.974;2023-04-03T07:18:33;7.10;99.90
8231;DHT22;4156;50.908;6.974;2023-04-03T07:20:59;7.10;99.90
8231;DHT22;4156;50.908;6.974;2023-04-03T07:23:25;7.20;99.90
8231;DHT22;4156;50.908;6.974;2023-04-03T07:25:51;7.20;99.90
8231;DHT22;4156;50.908;6.974;2023-04-03T07:28:19;7.20;99.90
8231;DHT22;4156;50.908;6.974;2023-04-03T07:30:47;7.20;99.90
8231;DHT22;4156;50.908;6.974;2023-04-03T07:33:14;7.30;99.90
8231;DHT22;4156;50.908;6.974;2023-04-03T07:35:40;7.40;99.90
8231;DHT22;4156;50.908;6.974;2023-04-03T07:38:06;7.40;99.90
8231;DHT22;4156;50.908;6.974;2023-04-03T07:40:32;7.40;99.90
8231;DHT22;4156;50.908;6.974;2023-04-03T07:42:58;7.40;99.90
8231;DHT22;4156;50.908;6.974;2023-04-03T07:45:25;7.50;99.90
8231;DHT22;4156;50.908;6.974;2023-04-03T07:47:50;7.50;99.90
8231;DHT22;4156;50.908;6.974;2023-04-03T07:50:16;7.50;99.90
8231;DHT22;4156;50.908;6.974;2023-04-03T07:52:42;7.50;99.90
8231;DHT22;4156;50.908;6.974;2023-04-03T07:55:08;7.60;99.90
8231;DHT22;4156;50.908;6.974;2023-04-03T07:57:33;7.60;99.90
8231;DHT22;4156;50.908;6.974;2023-04-03T07:59:59;7.70;99.90
8231;DHT22;4156;50.908;6.974;2023-04-03T08:02:25;7.70;99.90
8231;DHT22;4156;50.908;6.974;2023-04-03T08:04:50;7.80;99.90
8231;DHT22;4156;50.908;6.974;2023-04-03T08:07:16;7.80;99.90
8231;DHT22;4156;50.908;6.974;2023-04-03T08:09:41;7.80;99.90
8231;DHT22;4156;50.908;6.974;2023-04-03T08:12:07;7.80;99.90
8231;DHT22;4156;50.908;6.974;2023-04-03T08:14:32;7.90;99.90
8231;DHT22;4156;50.908;6.974;2023-04-03T08:17:00;7.90;99.90
8231;DHT22;4156;50.908;6.974;2023-04-03T08:19:26;7.90;99.90
8231;DHT22;4156;50.908;6.974;2023-04-03T08:21:52;8.00;99.90
8231;DHT22;4156;50.908;6.974;2023-04-03T08:24:18;8.00;99.90
8231;DHT22;4156;50.908;6.974;2023-04-03T08:26:43;8.10;99.90
8231;DHT22;4156;50.908;6.974;2023-04-03T08:29:09;8.10;99.90
8231;DHT22;4156;50.908;6.974;2023-04-03T08:31:34;8.10;99.90
8231;DHT22;4156;50.908;6.974;2023-04-03T08:34:00;8.10;99.90
8231;DHT22;4156;50.908;6.974;2023-04-03T08:36:27;8.20;99.90
8231;DHT22;4156;50.908;6.974;2023-04-03T08:38:54;8.20;99.90
8231;DHT22;4156;50.908;6.974;2023-04-03T08:41:36;8.20;99.90
8231;DHT22;4156;50.908;6.974;2023-04-03T08:47:31;8.20;99.90
8231;DHT22;4156;50.908;6.974;2023-04-03T08:50:02;8.20;99.90
8231;DHT22;4156;50.908;6.974;2023-04-03T08:52:56;8.20;99.90
8231;DHT22;4156;50.908;6.974;2023-04-03T08:55:42;8.10;99.90
8231;DHT22;4156;50.908;6.974;2023-04-03T08:58:48;8.10;99.90
8231;DHT22;4156;50.908;6.974;2023-04-03T09:01:20;8.20;99.90
8231;DHT22;4156;50.908;6.974;2023-04-03T09:03:46;8.20;99.90
8231;DHT22;4156;50.908;6.974;2023-04-03T09:06:25;8.20;99.90
8231;DHT22;4156;50.908;6.974;2023-04-03T09:09:12;8.20;99.90
8231;DHT22;4156;50.908;6.974;2023-04-03T09:11:55;8.20;99.90
8231;DHT22;4156;50.908;6.974;2023-04-03T09:14:57;8.20;99.90
8231;DHT22;4156;50.908;6.974;2023-04-03T09:20:21;8.30;99.90
8231;DHT22;4156;50.908;6.974;2023-04-03T09:22:51;8.30;99.90
8231;DHT22;4156;50.908;6.974;2023-04-03T09:25:31;8.30;99.90
8231;DHT22;4156;50.908;6.974;2023-04-03T09:27:59;8.40;99.90
8231;DHT22;4156;50.908;6.974;2023-04-03T09:30:26;8.40;99.90
8231;DHT22;4156;50.908;6.974;2023-04-03T09:32:55;8.40;99.90
8231;DHT22;4156;50.908;6.974;2023-04-03T09:35:28;8.50;99.90
8231;DHT22;4156;50.908;6.974;2023-04-03T09:40:47;8.50;99.90
8231;DHT22;4156;50.908;6.974;2023-04-03T09:43:30;8.50;99.90
8231;DHT22;4156;50.908;6.974;2023-04-03T09:46:16;8.50;99.90
8231;DHT22;4156;50.908;6.974;2023-04-03T09:48:59;8.50;99.90
8231;DHT22;4156;50.908;6.974;2023-04-03T09:51:26;8.50;99.90
8231;DHT22;4156;50.908;6.974;2023-04-03T09:53:53;8.50;99.90
8231;DHT22;4156;50.908;6.974;2023-04-03T09:56:23;8.50;99.90
8231;DHT22;4156;50.908;6.974;2023-04-03T09:59:12;8.50;99.90
8231;DHT22;4156;50.908;6.974;2023-04-03T10:01:42;8.50;99.90
8231;DHT22;4156;50.908;6.974;2023-04-03T10:04:12;8.60;99.90
8231;DHT22;4156;50.908;6.974;2023-04-03T10:09:26;8.70;99.90
8231;DHT22;4156;50.908;6.974;2023-04-03T10:12:04;8.70;99.90
8231;DHT22;4156;50.908;6.974;2023-04-03T10:14:32;8.70;99.90
8231;DHT22;4156;50.908;6.974;2023-04-03T10:17:26;8.80;99.90
8231;DHT22;4156;50.908;6.974;2023-04-03T10:23:02;8.70;99.90
8231;DHT22;4156;50.908;6.974;2023-04-03T10:34:12;8.70;99.90
8231;DHT22;4156;50.908;6.974;2023-04-03T10:56:26;8.80;99.90
8231;DHT22;4156;50.908;6.974;2023-04-03T10:58:56;8.80;99.90
8231;DHT22;4156;50.908;6.974;2023-04-03T11:01:32;8.90;99.90
8231;DHT22;4156;50.908;6.974;2023-04-03T11:04:00;8.90;99.90
8231;DHT22;4156;50.908;6.974;2023-04-03T11:06:36;8.90;99.90
8231;DHT22;4156;50.908;6.974;2023-04-03T11:09:12;8.90;99.90
8231;DHT22;4156;50.908;6.974;2023-04-03T11:11:42;9.00;99.90
8231;DHT22;4156;50.908;6.974;2023-04-03T11:14:26;9.00;99.90
8231;DHT22;4156;50.908;6.974;2023-04-03T11:17:21;9.00;99.90
8231;DHT22;4156;50.908;6.974;2023-04-03T11:20:02;9.00;99.90
8231;DHT22;4156;50.908;6.974;2023-04-03T11:22:37;9.00;99.90
8231;DHT22;4156;50.908;6.974;2023-04-03T11:27:44;9.00;99.90
8231;DHT22;4156;50.908;6.974;2023-04-03T11:33:02;9.10;99.90
8231;DHT22;4156;50.908;6.974;2023-04-03T11:35:30;9.10;99.90
8231;DHT22;4156;50.908;6.974;2023-04-03T11:37:58;9.10;99.90
8231;DHT22;4156;50.908;6.974;2023-04-03T11:40:29;9.10;99.90
8231;DHT22;4156;50.908;6.974;2023-04-03T11:48:04;9.10;99.90
8231;DHT22;4156;50.908;6.974;2023-04-03T12:32:26;9.50;98.30
8231;DHT22;4156;50.908;6.974;2023-04-03T12:40:53;9.50;99.90
8231;DHT22;4156;50.908;6.974;2023-04-03T12:48:54;9.50;99.40
8231;DHT22;4156;50.908;6.974;2023-04-03T12:51:26;9.50;99.10
8231;DHT22;4156;50.908;6.974;2023-04-03T12:54:00;9.50;99.90
8231;DHT22;4156;50.908;6.974;2023-04-03T12:56:31;9.50;99.90
8231;DHT22;4156;50.908;6.974;2023-04-03T12:59:20;9.60;99.90
8231;DHT22;4156;50.908;6.974;2023-04-03T13:01:57;9.60;99.90
8231;DHT22;4156;50.908;6.974;2023-04-03T13:04:23;9.70;99.90
8231;DHT22;4156;50.908;6.974;2023-04-03T13:06:50;9.70;99.90
8231;DHT22;4156;50.908;6.974;2023-04-03T13:09:21;9.70;99.90
8231;DHT22;4156;50.908;6.974;2023-04-03T13:11:52;9.70;99.90
8231;DHT22;4156;50.908;6.974;2023-04-03T13:14:22;9.70;99.90
8231;DHT22;4156;50.908;6.974;2023-04-03T13:19:25;9.90;99.90
8231;DHT22;4156;50.908;6.974;2023-04-03T13:22:04;10.00;99.90
8231;DHT22;4156;50.908;6.974;2023-04-03T13:24:33;10.00;99.90
8231;DHT22;4156;50.908;6.974;2023-04-03T13:27:01;10.00;99.90
8231;DHT22;4156;50.908;6.974;2023-04-03T13:29:50;10.00;99.90
8231;DHT22;4156;50.908;6.974;2023-04-03T13:32:21;10.00;99.90
8231;DHT22;4156;50.908;6.974;2023-04-03T13:34:48;10.00;99.90
8231;DHT22;4156;50.908;6.974;2023-04-03T13:37:32;10.00;99.90
8231;DHT22;4156;50.908;6.974;2023-04-03T13:42:38;10.00;99.90
8231;DHT22;4156;50.908;6.974;2023-04-03T13:45:26;10.00;99.90
8231;DHT22;4156;50.908;6.974;2023-04-03T13:48:17;10.00;99.90
8231;DHT22;4156;50.908;6.974;2023-04-03T13:51:05;10.00;99.90
8231;DHT22;4156;50.908;6.974;2023-04-03T13:53:33;10.00;99.90
8231;DHT22;4156;50.908;6.974;2023-04-03T13:58:29;10.00;99.90
8231;DHT22;4156;50.908;6.974;2023-04-03T14:03:46;10.10;99.90
8231;DHT22;4156;50.908;6.974;2023-04-03T14:06:14;10.00;99.90
8231;DHT22;4156;50.908;6.974;2023-04-03T14:08:41;10.10;99.90
8231;DHT22;4156;50.908;6.974;2023-04-03T14:11:26;10.10;99.90
8231;DHT22;4156;50.908;6.974;2023-04-03T14:13:53;10.10;99.50
8231;DHT22;4156;50.908;6.974;2023-04-03T14:16:25;10.10;99.90
8231;DHT22;4156;50.908;6.974;2023-04-03T14:18:52;10.10;99.90
8231;DHT22;4156;50.908;6.974;2023-04-03T14:21:19;10.10;99.90
8231;DHT22;4156;50.908;6.974;2023-04-03T14:23:45;10.10;99.90
8231;DHT22;4156;50.908;6.974;2023-04-03T14:26:23;10.10;99.90
8231;DHT22;4156;50.908;6.974;2023-04-03T14:28:51;10.10;99.90
8231;DHT22;4156;50.908;6.974;2023-04-03T14:31:18;10.10;98.40
8231;DHT22;4156;50.908;6.974;2023-04-03T14:33:44;10.10;99.70
8231;DHT22;4156;50.908;6.974;2023-04-03T14:36:15;10.10;98.10
8231;DHT22;4156;50.908;6.974;2023-04-03T14:38:42;10.10;98.20
8231;DHT22;4156;50.908;6.974;2023-04-03T14:41:09;10.10;98.40
8231;DHT22;4156;50.908;6.974;2023-04-03T14:43:35;10.10;99.90
8231;DHT22;4156;50.908;6.974;2023-04-03T14:46:01;10.10;99.50
8231;DHT22;4156;50.908;6.974;2023-04-03T14:48:28;10.10;99.60
8231;DHT22;4156;50.908;6.974;2023-04-03T14:50:55;10.20;99.90
8231;DHT22;4156;50.908;6.974;2023-04-03T14:53:21;10.10;99.90
8231;DHT22;4156;50.908;6.974;2023-04-03T14:55:52;10.20;99.90
8231;DHT22;4156;50.908;6.974;2023-04-03T14:58:20;10.20;99.90
8231;DHT22;4156;50.908;6.974;2023-04-03T15:00:46;10.20;99.90
8231;DHT22;4156;50.908;6.974;2023-04-03T15:03:17;10.20;99.60
8231;DHT22;4156;50.908;6.974;2023-04-03T15:05:44;10.20;99.90
8231;DHT22;4156;50.908;6.974;2023-04-03T15:10:43;10.20;98.80
8231;DHT22;4156;50.908;6.974;2023-04-03T15:13:11;10.20;99.50
8231;DHT22;4156;50.908;6.974;2023-04-03T15:15:37;10.20;98.90
8231;DHT22;4156;50.908;6.974;2023-04-03T15:18:02;10.30;98.60
8231;DHT22;4156;50.908;6.974;2023-04-03T15:20:28;10.20;98.30
8231;DHT22;4156;50.908;6.974;2023-04-03T15:22:56;10.20;98.90
8231;DHT22;4156;50.908;6.974;2023-04-03T15:25:22;10.20;99.40
8231;DHT22;4156;50.908;6.974;2023-04-03T15:27:48;10.20;99.90
8231;DHT22;4156;50.908;6.974;2023-04-03T15:30:17;10.20;99.90
8231;DHT22;4156;50.908;6.974;2023-04-03T15:32:43;10.20;99.60
8231;DHT22;4156;50.908;6.974;2023-04-03T15:35:09;10.30;99.90
8231;DHT22;4156;50.908;6.974;2023-04-03T15:37:35;10.20;99.90
8231;DHT22;4156;50.908;6.974;2023-04-03T15:40:01;10.30;99.70
8231;DHT22;4156;50.908;6.974;2023-04-03T15:42:27;10.20;99.50
8231;DHT22;4156;50.908;6.974;2023-04-03T15:44:52;10.20;99.70
8231;DHT22;4156;50.908;6.974;2023-04-03T15:47:18;10.30;99.90
8231;DHT22;4156;50.908;6.974;2023-04-03T15:49:43;10.30;99.90
8231;DHT22;4156;50.908;6.974;2023-04-03T15:52:09;10.30;99.90
8231;DHT22;4156;50.908;6.974;2023-04-03T15:54:35;10.30;99.90
8231;DHT22;4156;50.908;6.974;2023-04-03T15:57:00;10.30;99.90
8231;DHT22;4156;50.908;6.974;2023-04-03T15:59:26;10.30;99.90
8231;DHT22;4156;50.908;6.974;2023-04-03T16:01:52;10.30;99.30
8231;DHT22;4156;50.908;6.974;2023-04-03T16:04:18;10.30;99.90
8231;DHT22;4156;50.908;6.974;2023-04-03T16:06:46;10.30;99.90
8231;DHT22;4156;50.908;6.974;2023-04-03T16:09:11;10.30;99.90
8231;DHT22;4156;50.908;6.974;2023-04-03T16:11:37;10.30;99.90
8231;DHT22;4156;50.908;6.974;2023-04-03T16:14:06;10.30;99.90
8231;DHT22;4156;50.908;6.974;2023-04-03T16:16:31;10.30;99.90
8231;DHT22;4156;50.908;6.974;2023-04-03T16:18:57;10.30;99.90
8231;DHT22;4156;50.908;6.974;2023-04-03T16:21:23;10.30;99.90
8231;DHT22;4156;50.908;6.974;2023-04-03T16:23:49;10.30;99.50
8231;DHT22;4156;50.908;6.974;2023-04-03T16:26:14;10.30;99.90
8231;DHT22;4156;50.908;6.974;2023-04-03T16:28:40;10.30;99.90
8231;DHT22;4156;50.908;6.974;2023-04-03T16:31:07;10.30;99.90
8231;DHT22;4156;50.908;6.974;2023-04-03T16:33:33;10.30;99.90
8231;DHT22;4156;50.908;6.974;2023-04-03T16:35:59;10.30;99.90
8231;DHT22;4156;50.908;6.974;2023-04-03T16:38:24;10.30;99.90
8231;DHT22;4156;50.908;6.974;2023-04-03T16:40:50;10.30;99.90
8231;DHT22;4156;50.908;6.974;2023-04-03T16:43:17;10.30;99.90
8231;DHT22;4156;50.908;6.974;2023-04-03T16:45:43;10.30;99.90
8231;DHT22;4156;50.908;6.974;2023-04-03T16:48:09;10.20;99.90
8231;DHT22;4156;50.908;6.974;2023-04-03T16:50:34;10.20;99.90
8231;DHT22;4156;50.908;6.974;2023-04-03T16:53:00;10.20;99.90
8231;DHT22;4156;50.908;6.974;2023-04-03T16:55:28;10.30;99.90
8231;DHT22;4156;50.908;6.974;2023-04-03T16:57:53;10.20;99.90
8231;DHT22;4156;50.908;6.974;2023-04-03T17:00:19;10.20;99.90
8231;DHT22;4156;50.908;6.974;2023-04-03T17:02:45;10.20;99.90
8231;DHT22;4156;50.908;6.974;2023-04-03T17:05:10;10.20;99.90
8231;DHT22;4156;50.908;6.974;2023-04-03T17:07:36;10.20;99.90
8231;DHT22;4156;50.908;6.974;2023-04-03T17:10:02;10.20;99.90
8231;DHT22;4156;50.908;6.974;2023-04-03T17:12:27;10.20;99.90
8231;DHT22;4156;50.908;6.974;2023-04-03T17:14:53;10.20;99.90
8231;DHT22;4156;50.908;6.974;2023-04-03T17:17:22;10.20;99.90
8231;DHT22;4156;50.908;6.974;2023-04-03T17:19:48;10.10;99.90
8231;DHT22;4156;50.908;6.974;2023-04-03T17:22:14;10.20;99.90
8231;DHT22;4156;50.908;6.974;2023-04-03T17:24:41;10.20;99.90
8231;DHT22;4156;50.908;6.974;2023-04-03T17:27:07;10.20;99.90
8231;DHT22;4156;50.908;6.974;2023-04-03T17:29:32;10.10;99.90
8231;DHT22;4156;50.908;6.974;2023-04-03T17:31:58;10.10;99.90
8231;DHT22;4156;50.908;6.974;2023-04-03T17:34:24;10.10;99.90
8231;DHT22;4156;50.908;6.974;2023-04-03T17:36:49;10.10;99.90
8231;DHT22;4156;50.908;6.974;2023-04-03T17:39:15;10.10;99.90
8231;DHT22;4156;50.908;6.974;2023-04-03T17:41:42;10.10;99.90
8231;DHT22;4156;50.908;6.974;2023-04-03T17:44:10;10.10;99.90
8231;DHT22;4156;50.908;6.974;2023-04-03T17:46:36;10.00;99.90
8231;DHT22;4156;50.908;6.974;2023-04-03T17:49:02;10.00;99.90
8231;DHT22;4156;50.908;6.974;2023-04-03T17:51:29;10.00;99.90
8231;DHT22;4156;50.908;6.974;2023-04-03T17:53:54;10.00;99.90
8231;DHT22;4156;50.908;6.974;2023-04-03T17:56:22;9.90;99.90
8231;DHT22;4156;50.908;6.974;2023-04-03T17:58:49;9.90;99.90
8231;DHT22;4156;50.908;6.974;2023-04-03T18:01:16;9.90;99.90
8231;DHT22;4156;50.908;6.974;2023-04-03T18:03:43;9.90;99.90
8231;DHT22;4156;50.908;6.974;2023-04-03T18:06:15;9.90;99.90
8231;DHT22;4156;50.908;6.974;2023-04-03T18:08:44;9.90;99.90
8231;DHT22;4156;50.908;6.974;2023-04-03T18:11:11;9.90;99.90
8231;DHT22;4156;50.908;6.974;2023-04-03T18:13:37;9.80;99.90
8231;DHT22;4156;50.908;6.974;2023-04-03T18:16:05;9.80;99.90
8231;DHT22;4156;50.908;6.974;2023-04-03T18:18:30;9.80;99.90
8231;DHT22;4156;50.908;6.974;2023-04-03T18:20:56;9.80;99.90
8231;DHT22;4156;50.908;6.974;2023-04-03T18:23:22;9.70;99.90
8231;DHT22;4156;50.908;6.974;2023-04-03T18:25:48;9.70;99.90
8231;DHT22;4156;50.908;6.974;2023-04-03T18:28:13;9.70;99.90
8231;DHT22;4156;50.908;6.974;2023-04-03T18:30:40;9.70;99.90